Archival Weather

Yakutsk

Yakutsk, Russia (UEEE)

Report from: Sunday, February 5, 2023 5:00 AM JST
Current time: Sunday, July 14, 2024 10:10 AM JST

Current weather – Weather history – Daily summaries
Weather forecast

Present weatherFog
Temperature-43.0°C (-45.4°F)
Dew point-47.0°C (-52.6°F)
Winds 1.9 kts (1 m/s, 2.2 mph) South-Southeast (150°)
Visibility1148.3 ft. (350 m)
Altimeter30.06 in.Hg (1018 mB)
Precip. events QF 7:35 AM
Relative humidity64 %
Density altitude-8,033 ft. (-2,449 m)
Remarks No significant changes expected in the next two hours
Flight conditions Low Instrument Meteorological Conditions
Raw dataUEEE 042000Z 15001MPS 0350 0300NE R23L/0800N FG NSC M43/M47 Q1018 R23L/490150 NOSIG RMK QFE755
An error has occurred. This application may no longer respond until reloaded. Reload 🗙